createdAt,value
2023-03-06T00:00:10.362Z,17.63
2023-03-06T00:01:10.386Z,17.65
2023-03-06T00:02:10.412Z,17.69
2023-03-06T00:03:10.463Z,17.68
2023-03-06T00:04:10.635Z,17.72
2023-03-06T00:05:10.538Z,17.69
2023-03-06T00:06:10.672Z,17.67
2023-03-06T00:07:10.611Z,17.68
2023-03-06T00:08:10.644Z,17.69
2023-03-06T00:09:10.708Z,17.71
2023-03-06T00:10:10.750Z,17.72
2023-03-06T00:11:10.769Z,17.74
2023-03-06T00:12:10.802Z,17.71
2023-03-06T00:13:10.843Z,17.77
2023-03-06T00:14:10.873Z,17.69
2023-03-06T00:15:10.909Z,17.69
2023-03-06T00:16:10.974Z,17.72
2023-03-06T00:17:10.997Z,17.71
2023-03-06T00:18:11.018Z,17.72
2023-03-06T00:19:11.055Z,17.77
2023-03-06T00:20:11.101Z,17.71
2023-03-06T00:21:11.141Z,17.71
2023-03-06T00:22:11.157Z,17.72
2023-03-06T00:23:11.167Z,17.71
2023-03-06T00:24:11.228Z,17.77
2023-03-06T00:25:11.234Z,17.74
2023-03-06T00:26:11.270Z,17.74
2023-03-06T00:27:11.331Z,17.74
2023-03-06T00:28:11.371Z,17.74
2023-03-06T00:29:11.390Z,17.74
2023-03-06T00:31:11.461Z,17.75
2023-03-06T00:32:11.542Z,17.71
2023-03-06T00:34:30.306Z,17.74
2023-03-06T00:35:30.322Z,17.77
2023-03-06T00:36:30.273Z,17.75
2023-03-06T00:37:30.266Z,17.75
2023-03-06T00:38:30.228Z,17.71
2023-03-06T00:39:30.216Z,17.77
2023-03-06T00:40:30.221Z,17.80
2023-03-06T00:41:30.214Z,17.77
2023-03-06T00:42:30.197Z,17.74
2023-03-06T00:43:30.192Z,17.82
2023-03-06T00:44:30.174Z,17.72
2023-03-06T00:45:30.285Z,17.74
2023-03-06T00:46:30.113Z,17.73
2023-03-06T00:47:30.128Z,17.74
2023-03-06T00:48:30.135Z,17.75
2023-03-06T00:49:30.100Z,17.75
2023-03-06T00:50:30.109Z,17.77
2023-03-06T00:51:30.080Z,17.78
2023-03-06T00:52:30.095Z,17.72
2023-03-06T00:53:30.062Z,17.74
2023-03-06T00:54:30.064Z,17.72
2023-03-06T00:55:30.050Z,17.74
2023-03-06T00:56:30.032Z,17.77
2023-03-06T00:57:30.015Z,17.74
2023-03-06T00:58:30.018Z,17.72
2023-03-06T00:59:30.010Z,17.71
2023-03-06T01:00:29.986Z,17.72
2023-03-06T01:01:29.977Z,17.75
2023-03-06T01:02:30.032Z,17.72
2023-03-06T01:03:29.888Z,17.75
2023-03-06T01:04:29.937Z,17.75
2023-03-06T01:05:29.906Z,17.74
2023-03-06T01:06:29.872Z,17.77
2023-03-06T01:07:29.820Z,17.79
2023-03-06T01:08:29.829Z,17.71
2023-03-06T01:16:29.754Z,17.77
2023-03-06T01:17:29.778Z,17.77
2023-03-06T01:18:29.695Z,17.77
2023-03-06T01:19:29.697Z,17.72
2023-03-06T01:20:29.696Z,17.72
2023-03-06T01:21:29.658Z,17.74
2023-03-06T01:22:29.664Z,17.74
2023-03-06T01:23:29.633Z,17.75
2023-03-06T01:24:29.700Z,17.74
2023-03-06T01:25:29.711Z,17.75
2023-03-06T01:26:29.730Z,17.74
2023-03-06T01:27:29.767Z,17.75
2023-03-06T01:28:29.798Z,17.74
2023-03-06T01:29:29.832Z,17.75
2023-03-06T01:42:32.078Z,17.71
2023-03-06T01:49:30.469Z,17.73
2023-03-06T01:51:30.556Z,17.73
2023-03-06T01:54:30.662Z,17.67
2023-03-06T02:15:31.336Z,17.67
2023-03-06T02:16:31.400Z,17.67
2023-03-06T02:24:31.586Z,17.60
2023-03-06T02:25:31.612Z,17.59
2023-03-06T02:26:31.652Z,17.54
2023-03-06T02:27:31.663Z,17.55
2023-03-06T02:28:31.669Z,17.50
2023-03-06T02:29:31.656Z,17.52
2023-03-06T02:30:31.677Z,17.47
2023-03-06T02:31:31.650Z,17.41
2023-03-06T02:32:31.719Z,17.43
2023-03-06T02:33:31.734Z,17.43
2023-03-06T02:34:31.702Z,17.40
2023-03-06T02:35:31.729Z,17.40
2023-03-06T02:36:31.726Z,17.46
2023-03-06T02:37:31.686Z,17.39
2023-03-06T02:38:31.715Z,17.42
2023-03-06T02:39:31.722Z,17.35
2023-03-06T02:40:31.712Z,17.33
2023-03-06T02:41:31.703Z,17.32
2023-03-06T02:42:31.694Z,17.33
2023-03-06T02:43:31.742Z,17.33
2023-03-06T02:44:31.716Z,17.40
2023-03-06T02:45:31.719Z,17.30
2023-03-06T02:46:31.757Z,17.34
2023-03-06T02:47:31.707Z,17.34
2023-03-06T02:48:31.697Z,17.34
2023-03-06T02:49:31.672Z,17.26
2023-03-06T02:50:31.774Z,17.28
2023-03-06T02:51:31.676Z,17.31
2023-03-06T02:52:31.659Z,17.29
2023-03-06T02:53:31.689Z,17.27
2023-03-06T02:54:31.664Z,17.30
2023-03-06T02:55:31.713Z,17.24
2023-03-06T02:56:31.723Z,17.28
2023-03-06T02:57:31.724Z,17.27
2023-03-06T02:58:31.763Z,17.28
2023-03-06T02:59:31.745Z,17.19
2023-03-06T03:00:31.812Z,17.12
2023-03-06T03:01:31.871Z,17.13
2023-03-06T03:02:31.826Z,17.07
2023-03-06T03:03:31.877Z,17.09
2023-03-06T03:04:31.894Z,17.06
2023-03-06T03:05:31.874Z,17.10
2023-03-06T03:06:31.872Z,17.10
2023-03-06T03:07:31.862Z,17.18
2023-03-06T03:08:31.880Z,17.15
2023-03-06T03:09:31.870Z,17.13
2023-03-06T03:10:31.867Z,17.08
2023-03-06T03:11:31.846Z,17.16
2023-03-06T03:12:31.839Z,17.17
2023-03-06T03:13:31.847Z,17.21
2023-03-06T03:14:31.856Z,17.21
2023-03-06T03:15:31.859Z,17.21
2023-03-06T03:16:31.854Z,17.30
2023-03-06T03:17:31.867Z,17.27
2023-03-06T03:18:31.844Z,17.32
2023-03-06T03:19:31.858Z,17.38
2023-03-06T03:20:31.898Z,17.37
2023-03-06T03:21:31.881Z,17.42
2023-03-06T03:22:31.891Z,17.47
2023-03-06T03:23:31.900Z,17.49
2023-03-06T03:24:31.954Z,17.45
2023-03-06T03:25:31.931Z,17.45
2023-03-06T03:26:31.920Z,17.36
2023-03-06T03:27:31.927Z,17.33
2023-03-06T03:28:31.913Z,17.35
2023-03-06T03:29:31.902Z,17.44
2023-03-06T03:30:31.908Z,17.41
2023-03-06T03:31:31.975Z,17.42
2023-03-06T03:32:31.955Z,17.43
2023-03-06T03:33:31.937Z,17.45
2023-03-06T03:34:31.922Z,17.48
2023-03-06T03:35:31.985Z,17.52
2023-03-06T03:36:31.949Z,17.49
2023-03-06T03:37:31.976Z,17.48
2023-03-06T03:38:32.011Z,17.46
2023-03-06T03:39:32.033Z,17.42
2023-03-06T03:40:31.999Z,17.48
2023-03-06T03:41:32.034Z,17.50
2023-03-06T03:42:32.045Z,17.45
2023-03-06T03:43:32.064Z,17.48
2023-03-06T03:44:32.040Z,17.49
2023-03-06T03:45:32.077Z,17.51
2023-03-06T03:46:32.168Z,17.55
2023-03-06T03:47:32.086Z,17.58
2023-03-06T03:48:32.089Z,17.52
2023-03-06T03:49:32.127Z,17.52
2023-03-06T03:50:32.093Z,17.54
2023-03-06T03:51:32.095Z,17.52
2023-03-06T03:52:32.126Z,17.52
2023-03-06T03:53:32.122Z,17.50
2023-03-06T03:54:32.069Z,17.51
2023-03-06T03:55:32.089Z,17.54
2023-03-06T03:56:32.080Z,17.50
2023-03-06T03:57:32.083Z,17.51
2023-03-06T03:58:32.080Z,17.48
2023-03-06T03:59:32.076Z,17.50
2023-03-06T04:00:32.076Z,17.47
2023-03-06T04:01:32.080Z,17.47
2023-03-06T04:02:32.052Z,17.42
2023-03-06T04:03:32.044Z,17.38
2023-03-06T04:04:32.131Z,17.41
2023-03-06T04:05:32.048Z,17.45
2023-03-06T04:06:32.045Z,17.45
2023-03-06T04:07:32.035Z,17.45
2023-03-06T04:08:32.069Z,17.48
2023-03-06T04:09:32.077Z,17.50
2023-03-06T04:10:32.081Z,17.44
2023-03-06T04:11:32.126Z,17.47
2023-03-06T04:12:32.059Z,17.45
2023-03-06T04:13:32.062Z,17.42
2023-03-06T04:14:32.069Z,17.45
2023-03-06T04:15:32.083Z,17.42
2023-03-06T04:16:32.095Z,17.39
2023-03-06T04:17:32.087Z,17.45
2023-03-06T04:18:32.101Z,17.37
2023-03-06T04:19:32.107Z,17.40
2023-03-06T04:20:32.112Z,17.40
2023-03-06T04:21:32.081Z,17.40
2023-03-06T04:22:32.132Z,17.42
2023-03-06T04:23:32.141Z,17.45
2023-03-06T04:24:32.117Z,17.42
2023-03-06T04:25:32.161Z,17.47
2023-03-06T04:26:32.223Z,17.44
2023-03-06T04:27:32.107Z,17.45
2023-03-06T04:28:32.109Z,17.44
2023-03-06T04:29:32.200Z,17.41
2023-03-06T04:30:32.075Z,17.35
2023-03-06T04:31:32.142Z,17.38
2023-03-06T04:32:32.118Z,17.36
2023-03-06T04:33:32.098Z,17.35
2023-03-06T04:34:32.127Z,17.32
2023-03-06T04:35:32.151Z,17.32
2023-03-06T04:36:32.091Z,17.35
2023-03-06T04:37:32.090Z,17.33
2023-03-06T04:38:32.117Z,17.41
2023-03-06T04:39:32.083Z,17.35
2023-03-06T04:40:32.112Z,17.39
2023-03-06T04:41:32.132Z,17.36
2023-03-06T04:42:32.106Z,17.35
2023-03-06T04:43:32.133Z,17.32
2023-03-06T04:44:32.096Z,17.29
2023-03-06T04:45:32.135Z,17.27
2023-03-06T04:46:32.136Z,17.30
2023-03-06T04:47:32.146Z,17.29
2023-03-06T04:48:32.138Z,17.27
2023-03-06T04:49:32.141Z,17.35
2023-03-06T04:50:32.112Z,17.37
2023-03-06T04:51:32.123Z,17.36
2023-03-06T04:52:32.122Z,17.36
2023-03-06T04:53:32.140Z,17.39
2023-03-06T04:54:32.155Z,17.42
2023-03-06T04:55:32.133Z,17.35
2023-03-06T04:56:32.118Z,17.36
2023-03-06T04:57:32.137Z,17.26
2023-03-06T04:58:32.166Z,17.32
2023-03-06T05:00:32.158Z,17.33
2023-03-06T05:01:32.179Z,17.30
2023-03-06T05:02:32.219Z,17.33
2023-03-06T05:03:32.188Z,17.34
2023-03-06T05:04:32.201Z,17.36
2023-03-06T05:05:32.212Z,17.36
2023-03-06T05:08:32.199Z,17.39
2023-03-06T05:09:32.214Z,17.36
2023-03-06T05:10:32.226Z,17.41
2023-03-06T05:11:32.229Z,17.33
2023-03-06T05:12:32.233Z,17.30
2023-03-06T05:14:32.243Z,17.30
2023-03-06T05:15:32.238Z,17.30
2023-03-06T05:16:32.237Z,17.27
2023-03-06T05:17:32.230Z,17.26
2023-03-06T05:18:32.208Z,17.27
2023-03-06T05:19:32.200Z,17.24
2023-03-06T05:20:32.222Z,17.21
2023-03-06T05:21:32.253Z,17.18
2023-03-06T05:22:32.268Z,17.19
2023-03-06T05:23:32.230Z,17.16
2023-03-06T05:24:32.281Z,17.22
2023-03-06T05:25:32.306Z,17.22
2023-03-06T05:26:32.293Z,17.29
2023-03-06T05:27:32.332Z,17.31
2023-03-06T05:28:32.375Z,17.36
2023-03-06T05:29:32.384Z,17.37
2023-03-06T05:30:32.579Z,17.43
2023-03-06T05:31:32.488Z,17.46
2023-03-06T05:32:35.378Z,17.43
2023-03-06T05:33:32.546Z,17.44
2023-03-06T05:34:32.506Z,17.40
2023-03-06T05:35:32.548Z,17.51
2023-03-06T05:36:32.470Z,17.45
2023-03-06T05:37:32.514Z,17.48
2023-03-06T05:38:32.488Z,17.50
2023-03-06T05:39:32.457Z,17.54
2023-03-06T05:40:32.467Z,17.53
2023-03-06T05:41:32.436Z,17.59
2023-03-06T05:42:32.446Z,17.56
2023-03-06T05:43:32.418Z,17.50
2023-03-06T05:44:32.422Z,17.51
2023-03-06T05:45:32.454Z,17.50
2023-03-06T05:46:32.357Z,17.56
2023-03-06T05:47:32.375Z,17.56
2023-03-06T05:48:32.344Z,17.53
2023-03-06T05:49:32.304Z,17.53
2023-03-06T05:50:32.321Z,17.52
2023-03-06T05:51:32.312Z,17.50
2023-03-06T05:52:32.308Z,17.54
2023-03-06T05:54:32.256Z,17.45
2023-03-06T05:55:32.261Z,17.46
2023-03-06T05:56:32.227Z,17.43
2023-03-06T05:57:32.197Z,17.44
2023-03-06T05:58:32.192Z,17.42
2023-03-06T05:59:32.186Z,17.38
2023-03-06T06:00:32.155Z,17.41
2023-03-06T06:01:39.145Z,17.42
2023-03-06T06:02:32.157Z,17.44
2023-03-06T06:03:32.179Z,17.41
2023-03-06T06:04:32.126Z,17.41
2023-03-06T06:05:32.128Z,17.40
2023-03-06T06:06:32.083Z,17.29
2023-03-06T06:07:32.072Z,17.31
2023-03-06T06:08:32.087Z,17.31
2023-03-06T06:09:32.150Z,17.30
2023-03-06T06:10:33.066Z,17.32
2023-03-06T06:11:32.012Z,17.32
2023-03-06T06:12:32.085Z,17.34
2023-03-06T06:13:32.068Z,17.40
2023-03-06T06:14:31.952Z,17.34
2023-03-06T06:15:32.022Z,17.31
2023-03-06T06:16:31.981Z,17.32
2023-03-06T06:17:31.978Z,17.34
2023-03-06T06:18:31.886Z,17.28
2023-03-06T06:19:31.842Z,17.26
2023-03-06T06:20:31.872Z,17.29
2023-03-06T06:21:31.806Z,17.32
2023-03-06T06:22:31.778Z,17.34
2023-03-06T06:23:31.761Z,17.31
2023-03-06T06:24:31.726Z,17.34
2023-03-06T06:25:31.751Z,17.29
2023-03-06T06:26:31.784Z,17.32
2023-03-06T06:27:31.777Z,17.29
2023-03-06T06:28:31.780Z,17.28
2023-03-06T06:29:31.802Z,17.37
2023-03-06T06:30:31.810Z,17.39
2023-03-06T06:31:31.877Z,17.40
2023-03-06T06:32:31.866Z,18.97
2023-03-06T06:33:31.832Z,19.55
2023-03-06T06:34:31.794Z,18.83
2023-03-06T06:35:31.847Z,18.91
2023-03-06T06:36:31.806Z,18.67
2023-03-06T06:37:31.822Z,18.55
2023-03-06T06:38:31.800Z,18.63
2023-03-06T06:39:31.823Z,18.63
2023-03-06T06:40:31.794Z,18.75
2023-03-06T06:41:46.573Z,18.71
2023-03-06T06:42:39.004Z,18.83
2023-03-06T06:43:32.718Z,19.07
2023-03-06T06:44:31.728Z,19.41
2023-03-06T06:45:31.706Z,19.43
2023-03-06T06:47:20.888Z,19.44
2023-03-06T06:47:32.713Z,19.96
2023-03-06T06:48:31.640Z,20.18
2023-03-06T06:49:31.614Z,20.62
2023-03-06T06:50:31.603Z,20.47
2023-03-06T06:51:31.563Z,20.49
2023-03-06T06:52:31.549Z,20.72
2023-03-06T06:53:31.508Z,20.27
2023-03-06T06:54:31.443Z,20.90
2023-03-06T06:55:31.427Z,20.24
2023-03-06T06:56:31.382Z,20.04
2023-03-06T06:57:31.364Z,20.80
2023-03-06T06:58:31.322Z,20.92
2023-03-06T06:59:32.105Z,20.70
2023-03-06T07:00:31.265Z,19.80
2023-03-06T07:01:31.303Z,20.28
2023-03-06T07:02:31.202Z,19.98
2023-03-06T07:03:31.192Z,21.52
2023-03-06T07:04:31.134Z,21.38
2023-03-06T07:05:31.138Z,21.37
2023-03-06T07:06:31.135Z,21.64
2023-03-06T07:07:31.071Z,21.63
2023-03-06T07:08:31.026Z,21.75
2023-03-06T07:09:31.030Z,21.78
2023-03-06T07:10:30.954Z,22.08
2023-03-06T07:11:31.150Z,22.32
2023-03-06T07:12:30.906Z,22.38
2023-03-06T07:13:30.879Z,22.44
2023-03-06T07:14:30.836Z,22.80
2023-03-06T07:15:30.768Z,22.89
2023-03-06T07:16:30.747Z,23.01
2023-03-06T07:17:30.724Z,23.20
2023-03-06T07:18:30.683Z,23.33
2023-03-06T07:19:30.623Z,23.42
2023-03-06T07:20:30.613Z,23.58
2023-03-06T07:21:30.617Z,23.60
2023-03-06T07:22:38.727Z,23.84
2023-03-06T07:23:31.501Z,23.97
2023-03-06T07:24:30.506Z,24.09
2023-03-06T07:25:30.476Z,24.17
2023-03-06T07:26:32.088Z,24.29
2023-03-06T07:27:30.424Z,24.38
2023-03-06T07:28:33.694Z,24.52
2023-03-06T07:29:31.296Z,24.54
2023-03-06T07:30:30.264Z,24.76
2023-03-06T07:31:30.298Z,24.77
2023-03-06T07:32:30.262Z,24.93
2023-03-06T07:33:30.114Z,25.17
2023-03-06T07:34:30.075Z,25.15
2023-03-06T07:35:30.108Z,25.04
2023-03-06T07:36:30.019Z,25.05
2023-03-06T07:37:30.039Z,25.33
2023-03-06T07:38:29.955Z,25.01
2023-03-06T07:39:30.070Z,25.01
2023-03-06T07:40:29.857Z,24.63
2023-03-06T07:41:30.241Z,25.08
2023-03-06T07:42:29.787Z,25.36
2023-03-06T07:43:29.766Z,25.33
2023-03-06T07:44:29.709Z,25.17
2023-03-06T07:45:29.621Z,25.41
2023-03-06T07:46:29.655Z,25.24
2023-03-06T07:47:29.702Z,25.09
2023-03-06T07:48:29.543Z,25.09
2023-03-06T07:49:29.559Z,25.22
2023-03-06T07:50:30.159Z,25.17
2023-03-06T07:51:29.423Z,25.31
2023-03-06T07:52:29.690Z,25.34
2023-03-06T07:53:29.430Z,25.41
2023-03-06T07:54:29.367Z,25.42
2023-03-06T07:55:29.335Z,25.48
2023-03-06T07:56:29.392Z,25.51
2023-03-06T07:57:29.674Z,25.57
2023-03-06T07:58:29.326Z,25.63
2023-03-06T07:59:29.271Z,25.64
2023-03-06T08:00:29.239Z,25.77
2023-03-06T08:01:29.253Z,25.76
2023-03-06T08:02:29.186Z,25.72
2023-03-06T08:03:29.207Z,25.77
2023-03-06T08:04:30.233Z,25.94
2023-03-06T08:05:29.121Z,25.80
2023-03-06T08:06:29.124Z,25.81
2023-03-06T08:07:29.199Z,25.79
2023-03-06T08:08:29.029Z,26.00
2023-03-06T08:09:29.024Z,26.08
2023-03-06T08:10:28.963Z,26.04
2023-03-06T08:11:28.920Z,26.45
2023-03-06T08:12:29.238Z,26.70
2023-03-06T08:13:28.831Z,26.26
2023-03-06T08:14:28.811Z,26.39
2023-03-06T08:15:28.758Z,26.46
2023-03-06T08:16:28.726Z,26.35
2023-03-06T08:17:28.668Z,26.18
2023-03-06T08:18:28.657Z,26.10
2023-03-06T08:19:28.563Z,26.12
2023-03-06T08:20:28.491Z,26.10
2023-03-06T08:21:29.045Z,26.16
2023-03-06T08:22:29.405Z,26.12
2023-03-06T08:23:28.380Z,26.14
2023-03-06T08:24:28.354Z,26.14
2023-03-06T08:25:28.338Z,26.33
2023-03-06T08:26:28.368Z,26.24
2023-03-06T08:27:29.215Z,26.32
2023-03-06T08:28:28.248Z,26.31
2023-03-06T08:29:28.114Z,26.21
2023-03-06T08:30:28.086Z,26.20
2023-03-06T08:31:28.076Z,25.33
2023-03-06T08:32:28.276Z,25.02
2023-03-06T08:33:27.967Z,25.50
2023-03-06T08:34:27.937Z,25.15
2023-03-06T08:35:27.983Z,25.23
2023-03-06T08:37:28.231Z,24.86
2023-03-06T08:38:27.733Z,24.95
2023-03-06T08:39:27.718Z,24.46
2023-03-06T08:40:27.706Z,24.94
2023-03-06T08:41:27.694Z,25.19
2023-03-06T08:42:27.718Z,25.08
2023-03-06T08:43:27.590Z,25.04
2023-03-06T08:44:27.570Z,22.11
2023-03-06T08:45:27.556Z,22.41
2023-03-06T08:46:27.616Z,22.12
2023-03-06T08:47:27.736Z,22.42
2023-03-06T08:48:27.552Z,23.23
2023-03-06T08:49:27.548Z,22.62
2023-03-06T08:50:27.585Z,22.89
2023-03-06T08:51:27.584Z,22.92
2023-03-06T08:52:27.610Z,22.69
2023-03-06T08:53:41.630Z,22.84
2023-03-06T08:54:28.549Z,23.04
2023-03-06T09:01:28.269Z,23.54
2023-03-06T09:03:27.216Z,23.33
2023-03-06T09:04:27.200Z,23.25
2023-03-06T09:05:27.175Z,23.71
2023-03-06T09:06:27.121Z,23.94
2023-03-06T09:07:27.051Z,23.85
2023-03-06T09:08:27.052Z,23.70
2023-03-06T09:09:27.001Z,23.65
2023-03-06T09:10:27.044Z,23.84
2023-03-06T09:11:26.957Z,23.66
2023-03-06T09:12:28.083Z,24.39
2023-03-06T09:13:26.910Z,24.25
2023-03-06T09:14:26.895Z,24.32
2023-03-06T09:15:26.851Z,24.16
2023-03-06T09:16:26.835Z,24.29
2023-03-06T09:17:26.742Z,24.32
2023-03-06T09:18:26.702Z,24.33
2023-03-06T09:19:26.705Z,24.72
2023-03-06T09:20:26.645Z,24.77
2023-03-06T09:21:26.608Z,24.94
2023-03-06T09:22:26.548Z,25.12
2023-03-06T09:23:26.744Z,25.41
2023-03-06T09:24:26.479Z,25.40
2023-03-06T09:25:26.503Z,25.76
2023-03-06T09:26:39.531Z,26.65
2023-03-06T09:27:27.428Z,26.81
2023-03-06T09:28:26.400Z,26.91
2023-03-06T09:35:26.131Z,25.40
2023-03-06T09:36:26.037Z,25.25
2023-03-06T09:37:25.982Z,24.82
2023-03-06T09:38:25.964Z,24.04
2023-03-06T09:39:26.017Z,24.45
2023-03-06T09:40:25.871Z,24.40
2023-03-06T09:41:25.862Z,24.33
2023-03-06T09:42:25.846Z,24.21
2023-03-06T09:43:25.801Z,24.18
2023-03-06T09:44:25.874Z,24.22
2023-03-06T09:45:25.809Z,24.16
2023-03-06T09:46:25.796Z,24.10
2023-03-06T09:47:25.783Z,23.96
2023-03-06T09:48:25.699Z,23.65
2023-03-06T09:49:25.712Z,23.53
2023-03-06T09:50:25.686Z,21.60
2023-03-06T09:51:25.698Z,21.03
2023-03-06T09:52:25.701Z,20.17
2023-03-06T09:53:25.705Z,20.63
2023-03-06T09:54:25.808Z,19.87
2023-03-06T09:55:25.771Z,20.98
2023-03-06T09:56:25.787Z,20.98
2023-03-06T09:57:25.838Z,20.23
2023-03-06T09:58:25.848Z,19.69
2023-03-06T09:59:25.868Z,19.47
2023-03-06T10:00:25.866Z,19.56
2023-03-06T10:01:25.833Z,19.69
2023-03-06T10:02:25.964Z,20.02
2023-03-06T10:03:25.876Z,20.15
2023-03-06T10:04:25.813Z,20.43
2023-03-06T10:05:25.794Z,20.96
2023-03-06T10:06:25.790Z,20.96
2023-03-06T10:07:25.846Z,21.23
2023-03-06T10:08:25.927Z,21.16
2023-03-06T10:09:25.879Z,21.37
2023-03-06T10:10:25.932Z,21.68
2023-03-06T10:11:25.936Z,21.82
2023-03-06T10:12:25.956Z,21.81
2023-03-06T10:13:25.979Z,21.91
2023-03-06T10:14:25.985Z,21.83
2023-03-06T10:15:26.074Z,21.84
2023-03-06T10:16:26.016Z,22.68
2023-03-06T10:17:26.033Z,23.08
2023-03-06T10:18:26.817Z,22.93
2023-03-06T10:19:25.996Z,23.03
2023-03-06T10:20:25.998Z,23.60
2023-03-06T10:21:26.065Z,23.99
2023-03-06T10:22:25.943Z,23.73
2023-03-06T10:23:25.970Z,23.63
2023-03-06T10:24:25.919Z,24.50
2023-03-06T10:25:25.878Z,24.44
2023-03-06T10:26:25.884Z,24.32
2023-03-06T10:27:25.811Z,24.71
2023-03-06T10:28:25.781Z,25.06
2023-03-06T10:29:25.794Z,25.11
2023-03-06T10:30:26.491Z,24.90
2023-03-06T10:32:25.827Z,25.44
2023-03-06T10:33:25.780Z,25.50
2023-03-06T10:34:25.791Z,25.61
2023-03-06T10:35:25.851Z,25.83
2023-03-06T10:47:26.706Z,24.91
2023-03-06T10:48:25.879Z,22.88
2023-03-06T10:49:26.328Z,21.51
2023-03-06T10:50:25.860Z,20.43
2023-03-06T10:51:25.861Z,19.55
2023-03-06T10:52:25.829Z,19.45
2023-03-06T10:53:25.819Z,18.94
2023-03-06T10:54:26.278Z,18.82
2023-03-06T10:55:25.824Z,18.47
2023-03-06T10:56:25.880Z,18.36
2023-03-06T10:57:25.970Z,18.79
2023-03-06T10:58:25.956Z,18.61
2023-03-06T10:59:25.989Z,19.13
2023-03-06T11:00:26.014Z,19.77
2023-03-06T11:01:26.027Z,19.83
2023-03-06T11:02:26.090Z,19.82
2023-03-06T11:03:26.097Z,19.95
2023-03-06T11:04:26.134Z,20.16
2023-03-06T11:05:26.147Z,20.20
2023-03-06T11:06:26.156Z,20.22
2023-03-06T11:07:26.197Z,20.28
2023-03-06T11:08:26.173Z,20.31
2023-03-06T11:09:26.218Z,20.48
2023-03-06T11:10:26.192Z,20.84
2023-03-06T11:14:27.694Z,21.27
2023-03-06T11:15:26.110Z,21.26
2023-03-06T11:16:26.169Z,21.24
2023-03-06T11:17:26.091Z,21.47
2023-03-06T11:18:26.144Z,21.64
2023-03-06T11:19:26.032Z,21.65
2023-03-06T11:20:26.037Z,21.94
2023-03-06T11:21:25.937Z,21.90
2023-03-06T11:22:25.951Z,21.10
2023-03-06T11:23:25.916Z,19.27
2023-03-06T11:24:25.928Z,18.82
2023-03-06T11:25:25.865Z,17.94
2023-03-06T11:26:25.879Z,18.00
2023-03-06T11:27:25.890Z,18.06
2023-03-06T11:28:28.817Z,18.86
2023-03-06T11:29:25.966Z,19.40
2023-03-06T11:30:25.845Z,19.55
2023-03-06T11:31:25.891Z,19.70
2023-03-06T11:32:25.925Z,19.91
2023-03-06T11:33:25.790Z,20.07
2023-03-06T11:34:25.814Z,20.40
2023-03-06T11:35:25.762Z,20.45
2023-03-06T11:36:25.631Z,21.33
2023-03-06T11:37:25.555Z,20.73
2023-03-06T11:38:25.529Z,21.23
2023-03-06T11:39:25.843Z,21.29
2023-03-06T11:40:25.459Z,21.44
2023-03-06T11:41:25.434Z,21.59
2023-03-06T11:42:25.449Z,22.22
2023-03-06T11:43:25.358Z,21.86
2023-03-06T11:44:25.804Z,22.00
2023-03-06T11:45:25.272Z,22.27
2023-03-06T11:46:25.376Z,22.47
2023-03-06T11:47:25.234Z,22.65
2023-03-06T11:48:25.164Z,22.31
2023-03-06T11:49:25.313Z,22.24
2023-03-06T11:50:25.094Z,22.16
2023-03-06T11:51:24.996Z,22.38
2023-03-06T11:52:24.946Z,22.42
2023-03-06T11:53:24.931Z,22.64
2023-03-06T11:54:24.866Z,22.78
2023-03-06T11:55:24.854Z,22.93
2023-03-06T11:56:24.817Z,23.45
2023-03-06T11:57:24.751Z,23.05
2023-03-06T11:58:24.691Z,23.51
2023-03-06T11:59:24.693Z,23.47
2023-03-06T12:00:24.860Z,21.48
2023-03-06T12:01:24.636Z,18.72
2023-03-06T12:02:24.712Z,18.06
2023-03-06T12:03:24.525Z,17.61
2023-03-06T12:04:24.482Z,18.52
2023-03-06T12:05:24.554Z,18.58
2023-03-06T12:06:24.442Z,18.93
2023-03-06T12:07:24.413Z,19.55
2023-03-06T12:08:24.373Z,19.95
2023-03-06T12:09:24.351Z,20.43
2023-03-06T12:10:24.808Z,20.60
2023-03-06T12:11:24.322Z,20.77
2023-03-06T12:12:24.255Z,20.98
2023-03-06T12:14:24.156Z,21.03
2023-03-06T12:15:24.327Z,21.28
2023-03-06T12:16:24.169Z,21.21
2023-03-06T12:17:24.074Z,21.39
2023-03-06T12:18:24.110Z,21.63
2023-03-06T12:19:23.980Z,21.52
2023-03-06T12:20:24.321Z,21.70
2023-03-06T12:21:23.914Z,21.80
2023-03-06T12:22:23.861Z,21.88
2023-03-06T12:23:23.914Z,22.11
2023-03-06T12:24:23.766Z,22.06
2023-03-06T12:25:23.830Z,22.06
2023-03-06T12:26:23.729Z,22.21
2023-03-06T12:27:23.645Z,22.23
2023-03-06T12:28:23.616Z,22.32
2023-03-06T12:29:23.558Z,22.23
2023-03-06T12:30:23.827Z,21.72
2023-03-06T12:31:23.547Z,21.75
2023-03-06T12:32:23.482Z,21.85
2023-03-06T12:34:23.401Z,21.79
2023-03-06T12:35:23.848Z,21.97
2023-03-06T12:36:23.415Z,21.95
2023-03-06T12:37:23.419Z,21.89
2023-03-06T12:38:23.464Z,21.84
2023-03-06T12:39:23.429Z,21.69
2023-03-06T12:40:23.818Z,21.54
2023-03-06T12:41:23.428Z,21.40
2023-03-06T12:42:23.922Z,21.28
2023-03-06T12:43:23.395Z,21.38
2023-03-06T12:44:23.357Z,21.35
2023-03-06T12:45:23.316Z,21.35
2023-03-06T12:46:23.373Z,21.41
2023-03-06T12:47:23.265Z,21.42
2023-03-06T12:48:23.273Z,21.38
2023-03-06T12:49:31.516Z,21.28
2023-03-06T12:50:24.216Z,21.08
2023-03-06T12:51:23.154Z,20.99
2023-03-06T12:52:29.549Z,21.08
2023-03-06T12:53:24.088Z,20.91
2023-03-06T12:54:23.031Z,20.83
2023-03-06T12:55:25.722Z,20.77
2023-03-06T12:56:22.963Z,20.74
2023-03-06T12:57:22.926Z,20.61
2023-03-06T12:58:22.898Z,20.80
2023-03-06T12:59:22.857Z,20.58
2023-03-06T13:00:22.839Z,20.47
2023-03-06T13:01:22.785Z,20.41
2023-03-06T13:02:22.762Z,20.51
2023-03-06T13:03:22.726Z,20.47
2023-03-06T13:04:22.680Z,19.97
2023-03-06T13:05:22.670Z,20.01
2023-03-06T13:06:22.621Z,20.05
2023-03-06T13:07:22.585Z,20.13
2023-03-06T13:08:22.535Z,20.09
2023-03-06T13:09:22.485Z,20.20
2023-03-06T13:10:22.465Z,20.18
2023-03-06T13:11:22.432Z,20.06
2023-03-06T13:12:22.399Z,20.04
2023-03-06T13:13:22.365Z,19.92
2023-03-06T13:14:22.317Z,19.77
2023-03-06T13:15:22.271Z,19.82
2023-03-06T13:16:22.263Z,19.78
2023-03-06T13:32:21.723Z,19.65
2023-03-06T13:44:21.216Z,19.99
2023-03-06T13:45:21.201Z,20.49
2023-03-06T13:46:21.195Z,20.32
2023-03-06T13:47:21.175Z,20.35
2023-03-06T13:48:41.512Z,20.39
2023-03-06T13:49:22.106Z,20.12
2023-03-06T13:50:21.093Z,20.77
2023-03-06T13:51:21.037Z,21.01
2023-03-06T13:52:21.016Z,21.95
2023-03-06T13:53:20.922Z,21.81
2023-03-06T13:54:20.967Z,22.64
2023-03-06T13:55:20.911Z,24.27
2023-03-06T13:56:20.855Z,31.16
2023-03-06T13:57:20.836Z,27.99
2023-03-06T13:58:20.783Z,30.70
2023-03-06T13:59:20.785Z,29.18
2023-03-06T14:00:20.747Z,26.75
2023-03-06T14:01:20.746Z,27.58
2023-03-06T14:02:20.731Z,27.34
2023-03-06T14:03:20.660Z,27.00
2023-03-06T14:04:20.587Z,26.50
2023-03-06T14:05:20.712Z,28.16
2023-03-06T14:06:20.577Z,27.43
2023-03-06T14:07:20.557Z,26.80
2023-03-06T14:08:20.500Z,25.71
2023-03-06T14:09:20.494Z,26.55
2023-03-06T14:10:20.513Z,25.25
2023-03-06T14:11:20.515Z,25.11
2023-03-06T14:12:20.509Z,26.52
2023-03-06T14:13:20.497Z,25.39
2023-03-06T14:14:20.551Z,24.49
2023-03-06T14:17:20.593Z,23.84
2023-03-06T14:18:20.604Z,25.02
2023-03-06T14:19:20.592Z,23.72
2023-03-06T14:20:20.604Z,23.54
2023-03-06T15:30:21.289Z,19.54
2023-03-06T20:08:28.830Z,17.61
2023-03-06T20:09:28.860Z,17.66
2023-03-06T20:10:28.885Z,17.66
2023-03-06T20:11:28.940Z,17.66
2023-03-06T20:12:28.973Z,17.67
2023-03-06T20:13:29.016Z,17.58
2023-03-06T20:14:29.097Z,17.64
2023-03-06T20:15:29.119Z,17.66
2023-03-06T20:16:29.095Z,17.60
2023-03-06T20:17:29.146Z,17.58
2023-03-06T20:18:29.133Z,17.60
2023-03-06T20:19:29.109Z,17.60
2023-03-06T20:20:29.117Z,17.64
2023-03-06T20:21:29.133Z,17.64
2023-03-06T20:22:29.136Z,17.63
2023-03-06T20:23:29.153Z,17.57
2023-03-06T20:24:29.156Z,17.47
2023-03-06T20:25:29.190Z,17.49
2023-03-06T20:26:29.514Z,17.48
2023-03-06T20:27:29.226Z,17.36
2023-03-06T20:28:29.219Z,17.43
2023-03-06T20:29:29.215Z,17.46
2023-03-06T20:30:37.555Z,17.57
2023-03-06T20:31:30.304Z,17.58
2023-03-06T20:32:29.295Z,17.63
2023-03-06T20:33:29.183Z,17.61
2023-03-06T20:34:29.128Z,17.60
2023-03-06T20:35:29.120Z,17.51
2023-03-06T20:36:29.112Z,17.52
2023-03-06T20:37:29.092Z,17.51
2023-03-06T20:38:29.070Z,17.48
2023-03-06T20:39:29.040Z,17.46